Time;durP1;ratioP1;P1;durP2;ratioP2;P2;SDS_P1;SDS_P2;PMS_P1;PMS_P2;Temp;Humidity;BMP_temperature;BMP_pressure;BME280_temperature;BME280_humidity;BME280_pressure;Samples;Min_cycle;Max_cycle;Signal;HPM_P1;HPM_P2
2024/03/17 00:01:37;0.00;0.00;0.62;0.00;0.00;0.62;3.30;2.13;;;23.10;23.00;;;;;;2262600;61;20371;-64
2024/03/17 00:04:03;0.00;0.00;0.62;0.00;0.00;0.62;3.53;2.17;;;23.10;23.10;;;;;;2263172;61;20345;-64
2024/03/17 00:06:31;0.00;0.00;0.62;0.00;0.00;0.62;3.77;2.20;;;23.10;23.10;;;;;;2263058;61;20384;-64
2024/03/17 00:08:57;0.00;0.00;0.62;0.00;0.00;0.62;3.23;2.00;;;23.10;23.10;;;;;;2261453;61;20890;-64
2024/03/17 00:11:23;0.00;0.00;0.62;0.00;0.00;0.62;2.60;2.10;;;23.10;23.10;;;;;;2262678;61;20936;-64
2024/03/17 00:13:49;0.00;0.00;0.62;0.00;0.00;0.62;4.23;2.60;;;23.10;23.10;;;;;;2259169;61;20460;-64
2024/03/17 00:16:18;0.00;0.00;0.62;0.00;0.00;0.62;4.27;2.00;;;23.10;23.10;;;;;;2262481;61;20369;-64
2024/03/17 00:18:46;0.00;0.00;0.62;0.00;0.00;0.62;4.57;2.27;;;23.10;23.10;;;;;;2263103;61;20871;-64
2024/03/17 00:21:13;0.00;0.00;0.62;0.00;0.00;0.62;4.67;2.27;;;23.00;23.00;;;;;;2262937;61;20684;-65
2024/03/17 00:23:41;0.00;0.00;0.62;0.00;0.00;0.62;6.03;3.10;;;23.00;23.00;;;;;;2258791;61;20357;-64
2024/03/17 00:26:07;0.00;0.00;0.62;0.00;0.00;0.62;3.30;2.10;;;23.00;23.00;;;;;;2263090;61;20832;-64
2024/03/17 00:28:34;0.00;0.00;0.62;0.00;0.00;0.62;3.40;2.30;;;23.00;23.00;;;;;;2262982;61;20771;-64
2024/03/17 00:31:03;0.00;0.00;0.62;0.00;0.00;0.62;3.20;2.20;;;23.00;23.00;;;;;;2262501;61;20882;-64
2024/03/17 00:33:29;0.00;0.00;0.62;0.00;0.00;0.62;4.50;2.03;;;23.10;23.10;;;;;;2263085;61;20376;-64
2024/03/17 00:35:55;0.00;0.00;0.62;0.00;0.00;0.62;4.80;2.40;;;23.00;23.00;;;;;;2262869;61;20388;-64
2024/03/17 00:38:21;0.00;0.00;0.62;0.00;0.00;0.62;4.20;2.20;;;23.00;23.00;;;;;;2262661;61;20352;-64
2024/03/17 00:40:49;0.00;0.00;0.62;0.00;0.00;0.62;3.50;2.00;;;23.00;23.00;;;;;;2262958;61;20895;-64
2024/03/17 00:43:15;0.00;0.00;0.62;0.00;0.00;0.62;3.20;1.83;;;23.00;23.00;;;;;;2263102;61;20353;-64
2024/03/17 00:45:41;0.00;0.00;0.62;0.00;0.00;0.62;3.30;1.50;;;23.00;23.00;;;;;;2262614;61;20384;-64
2024/03/17 00:48:07;0.00;0.00;0.62;0.00;0.00;0.62;4.23;2.00;;;23.00;23.00;;;;;;2262990;61;20353;-64
2024/03/17 00:50:33;0.00;0.00;0.62;0.00;0.00;0.62;3.37;1.50;;;23.00;23.00;;;;;;2262753;61;20646;-64
2024/03/17 00:53:02;0.00;0.00;0.62;0.00;0.00;0.62;3.57;2.07;;;23.00;23.00;;;;;;2262570;61;20377;-63
2024/03/17 00:55:29;0.00;0.00;0.62;0.00;0.00;0.62;4.20;1.77;;;23.00;23.00;;;;;;2263069;61;20388;-64
2024/03/17 00:57:56;0.00;0.00;0.62;0.00;0.00;0.62;3.37;1.87;;;23.00;23.00;;;;;;2263143;61;20390;-64
2024/03/17 01:00:23;0.00;0.00;0.62;0.00;0.00;0.62;4.47;1.80;;;22.90;23.00;;;;;;2262766;61;20452;-64
2024/03/17 01:02:49;0.00;0.00;0.62;0.00;0.00;0.62;6.07;2.00;;;22.90;22.90;;;;;;2263159;61;20380;-64
2024/03/17 01:05:15;0.00;0.00;0.62;0.00;0.00;0.62;3.23;1.90;;;23.00;23.00;;;;;;2262759;61;20446;-64
2024/03/17 01:07:41;0.00;0.00;0.62;0.00;0.00;0.62;4.70;2.40;;;22.90;22.90;;;;;;2262587;61;20353;-64
2024/03/17 01:10:08;0.00;0.00;0.62;0.00;0.00;0.62;4.07;2.17;;;22.90;22.90;;;;;;2263350;61;20430;-64
2024/03/17 01:12:35;0.00;0.00;0.62;0.00;0.00;0.62;4.27;1.63;;;22.90;22.90;;;;;;2263485;61;20903;-64
2024/03/17 01:15:06;0.00;0.00;0.62;0.00;0.00;0.62;3.97;1.90;;;22.90;22.90;;;;;;2263151;61;20375;-64
2024/03/17 01:17:32;0.00;0.00;0.62;0.00;0.00;0.62;5.03;2.00;;;22.90;22.90;;;;;;2263450;61;20357;-64
2024/03/17 01:19:58;0.00;0.00;0.62;0.00;0.00;0.62;4.50;1.70;;;22.90;23.00;;;;;;2263544;61;20360;-64
2024/03/17 01:22:24;0.00;0.00;0.62;0.00;0.00;0.62;2.53;1.57;;;22.90;23.00;;;;;;2263275;61;20387;-64
2024/03/17 01:24:50;0.00;0.00;0.62;0.00;0.00;0.62;4.07;2.00;;;22.90;23.00;;;;;;2263631;61;20357;-64
2024/03/17 01:27:16;0.00;0.00;0.62;0.00;0.00;0.62;2.47;1.90;;;22.90;23.00;;;;;;2263666;61;20368;-65
2024/03/17 01:29:43;0.00;0.00;0.62;0.00;0.00;0.62;3.50;1.73;;;22.90;23.00;;;;;;2263164;61;20447;-64
2024/03/17 01:32:11;0.00;0.00;0.62;0.00;0.00;0.62;4.77;1.83;;;22.90;23.00;;;;;;2263336;61;20763;-64
2024/03/17 01:34:37;0.00;0.00;0.62;0.00;0.00;0.62;4.80;1.80;;;22.80;22.90;;;;;;2263371;61;20436;-64
2024/03/17 01:37:03;0.00;0.00;0.62;0.00;0.00;0.62;2.87;1.60;;;22.80;22.90;;;;;;2258725;61;20391;-64
2024/03/17 01:39:30;0.00;0.00;0.62;0.00;0.00;0.62;3.53;1.83;;;22.90;22.90;;;;;;2263722;61;20445;-64
2024/03/17 01:41:58;0.00;0.00;0.62;0.00;0.00;0.62;3.47;1.80;;;22.80;22.90;;;;;;2263608;61;20368;-64
2024/03/17 01:44:27;0.00;0.00;0.62;0.00;0.00;0.62;4.27;1.80;;;22.80;22.90;;;;;;2263182;61;20886;-64
2024/03/17 01:46:54;0.00;0.00;0.62;0.00;0.00;0.62;4.10;1.70;;;22.80;22.90;;;;;;2263556;61;20466;-64
2024/03/17 01:49:22;0.00;0.00;0.62;0.00;0.00;0.62;5.37;1.80;;;22.80;22.90;;;;;;2263518;61;20399;-64
2024/03/17 01:51:49;0.00;0.00;0.62;0.00;0.00;0.62;5.90;2.00;;;22.80;22.90;;;;;;2262989;61;20446;-64
2024/03/17 01:54:16;0.00;0.00;0.62;0.00;0.00;0.62;4.50;1.80;;;22.80;22.90;;;;;;2263423;61;20969;-64
2024/03/17 01:56:43;0.00;0.00;0.62;0.00;0.00;0.62;2.30;1.70;;;22.80;22.90;;;;;;2263460;61;20406;-64
2024/03/17 01:59:10;0.00;0.00;0.62;0.00;0.00;0.62;2.87;2.07;;;22.80;22.90;;;;;;2262948;61;20368;-64
2024/03/17 02:01:36;0.00;0.00;0.62;0.00;0.00;0.62;5.13;1.83;;;22.80;22.90;;;;;;2263419;61;20474;-64
2024/03/17 02:04:03;0.00;0.00;0.62;0.00;0.00;0.62;2.73;1.50;;;22.80;22.90;;;;;;2263558;61;20396;-64
2024/03/17 02:06:34;0.00;0.00;0.62;0.00;0.00;0.62;3.07;1.93;;;22.80;22.90;;;;;;2262297;61;20369;-65
2024/03/17 02:09:00;0.00;0.00;0.62;0.00;0.00;0.62;3.30;1.63;;;22.80;22.90;;;;;;2261032;61;20554;-64
2024/03/17 02:11:29;0.00;0.00;0.62;0.00;0.00;0.62;5.30;2.10;;;22.80;22.90;;;;;;2263557;61;20405;-64
2024/03/17 02:13:56;0.00;0.00;0.62;0.00;0.00;0.62;3.53;1.50;;;22.80;22.90;;;;;;2263294;61;20381;-64
2024/03/17 02:16:23;0.00;0.00;0.62;0.00;0.00;0.62;3.80;1.80;;;22.80;22.90;;;;;;2262129;61;20404;-64
2024/03/17 02:18:54;0.00;0.00;0.62;0.00;0.00;0.62;3.37;1.83;;;22.80;22.90;;;;;;2263407;61;20972;-65
2024/03/17 02:21:22;0.00;0.00;0.62;0.00;0.00;0.62;3.33;2.10;;;22.70;22.80;;;;;;2263181;61;20903;-64
2024/03/17 02:23:50;0.00;0.00;0.62;0.00;0.00;0.62;4.73;1.90;;;22.80;22.90;;;;;;2263343;61;20360;-64
2024/03/17 02:26:17;0.00;0.00;0.62;0.00;0.00;0.62;5.33;1.93;;;22.70;22.80;;;;;;2263722;61;20772;-64
2024/03/17 02:28:45;0.00;0.00;0.62;0.00;0.00;0.62;3.57;1.93;;;22.70;22.80;;;;;;2263820;61;20411;-64
2024/03/17 02:31:13;0.00;0.00;0.62;0.00;0.00;0.62;4.33;2.00;;;22.70;22.80;;;;;;2262854;61;20365;-64
2024/03/17 02:33:39;0.00;0.00;0.62;0.00;0.00;0.62;2.13;1.53;;;22.70;22.80;;;;;;2264030;61;20380;-64
2024/03/17 02:36:11;0.00;0.00;0.62;0.00;0.00;0.62;3.10;1.70;;;22.70;22.80;;;;;;2263479;61;20380;-64
2024/03/17 02:41:24;0.00;0.00;0.62;0.00;0.00;0.62;3.10;2.40;;;22.70;22.80;;;;;;2263457;61;20779;-64
2024/03/17 02:43:51;0.00;0.00;0.62;0.00;0.00;0.62;5.87;3.90;;;22.70;22.80;;;;;;2259828;61;20526;-64
2024/03/17 02:46:18;0.00;0.00;0.62;0.00;0.00;0.62;5.07;3.30;;;22.70;22.80;;;;;;2262628;61;20669;-64
2024/03/17 02:48:47;0.00;0.00;0.62;0.00;0.00;0.62;7.20;3.80;;;22.70;22.80;;;;;;2260916;61;20527;-64
2024/03/17 02:51:14;0.00;0.00;0.62;0.00;0.00;0.62;5.80;4.07;;;22.70;22.80;;;;;;2263195;61;20417;-64
2024/03/17 02:53:42;0.00;0.00;0.62;0.00;0.00;0.62;6.43;4.40;;;22.60;22.70;;;;;;2263616;61;20379;-64
2024/03/17 02:56:08;0.00;0.00;0.62;0.00;0.00;0.62;8.13;5.30;;;22.60;22.70;;;;;;2262537;61;20890;-64
2024/03/17 02:58:37;0.00;0.00;0.62;0.00;0.00;0.62;7.10;4.10;;;22.60;22.70;;;;;;2263338;61;20900;-64
2024/03/17 03:01:04;0.00;0.00;0.62;0.00;0.00;0.62;6.30;4.40;;;22.60;22.70;;;;;;2263494;61;20429;-64
2024/03/17 03:03:30;0.00;0.00;0.62;0.00;0.00;0.62;5.67;4.57;;;22.60;22.70;;;;;;2263340;61;20353;-64
2024/03/17 03:05:57;0.00;0.00;0.62;0.00;0.00;0.62;6.20;4.73;;;22.60;22.70;;;;;;2263135;61;20910;-64
2024/03/17 03:08:23;0.00;0.00;0.62;0.00;0.00;0.62;5.07;4.10;;;22.60;22.70;;;;;;2262015;61;20353;-64
2024/03/17 03:10:51;0.00;0.00;0.62;0.00;0.00;0.62;6.30;4.53;;;22.60;22.70;;;;;;2259480;61;20357;-64
2024/03/17 03:13:17;0.00;0.00;0.62;0.00;0.00;0.62;5.10;3.77;;;22.60;22.70;;;;;;2259970;61;20384;-64
2024/03/17 03:15:47;0.00;0.00;0.62;0.00;0.00;0.62;7.47;4.90;;;22.60;23.20;;;;;;2263282;61;20772;-64
2024/03/17 03:18:13;0.00;0.00;0.62;0.00;0.00;0.62;8.10;4.37;;;22.60;22.70;;;;;;2263162;61;20380;-64
2024/03/17 03:20:40;0.00;0.00;0.62;0.00;0.00;0.62;5.93;4.00;;;22.60;22.70;;;;;;2262808;61;20369;-64
2024/03/17 03:23:06;0.00;0.00;0.62;0.00;0.00;0.62;5.40;4.00;;;22.60;22.70;;;;;;2263451;61;20355;-64
2024/03/17 03:25:32;0.00;0.00;0.62;0.00;0.00;0.62;4.57;3.40;;;22.60;22.70;;;;;;2263426;61;20415;-64
2024/03/17 03:27:59;0.00;0.00;0.62;0.00;0.00;0.62;6.60;3.70;;;22.60;22.70;;;;;;2262818;61;20369;-64
2024/03/17 03:30:25;0.00;0.00;0.62;0.00;0.00;0.62;7.03;4.10;;;22.50;22.60;;;;;;2263266;61;20463;-64
2024/03/17 03:32:53;0.00;0.00;0.62;0.00;0.00;0.62;6.17;4.03;;;22.60;22.70;;;;;;2263036;61;20357;-64
2024/03/17 03:35:19;0.00;0.00;0.62;0.00;0.00;0.62;5.10;3.23;;;22.50;22.60;;;;;;2262880;61;20381;-64
2024/03/17 03:37:46;0.00;0.00;0.62;0.00;0.00;0.62;4.33;3.43;;;22.50;22.60;;;;;;2263316;61;20749;-64
2024/03/17 03:40:18;0.00;0.00;0.62;0.00;0.00;0.62;4.80;3.60;;;22.50;22.60;;;;;;2263290;61;20843;-64
2024/03/17 03:42:45;0.00;0.00;0.62;0.00;0.00;0.62;4.70;3.40;;;22.50;22.60;;;;;;2262923;61;20357;-64
2024/03/17 03:45:14;0.00;0.00;0.62;0.00;0.00;0.62;6.23;3.43;;;22.50;22.60;;;;;;2262167;61;20797;-64
2024/03/17 03:47:40;0.00;0.00;0.62;0.00;0.00;0.62;6.50;2.97;;;22.50;22.60;;;;;;2262734;61;20794;-64
2024/03/17 03:50:09;0.00;0.00;0.62;0.00;0.00;0.62;5.50;3.10;;;22.50;22.60;;;;;;2262711;61;20799;-64
2024/03/17 03:52:35;0.00;0.00;0.62;0.00;0.00;0.62;5.67;3.50;;;22.50;22.60;;;;;;2263019;61;20510;-64
2024/03/17 03:55:01;0.00;0.00;0.62;0.00;0.00;0.62;5.70;2.80;;;22.50;22.60;;;;;;2262991;61;20356;-64
2024/03/17 03:57:29;0.00;0.00;0.62;0.00;0.00;0.62;6.70;3.30;;;22.50;22.60;;;;;;2262911;61;20357;-64
2024/03/17 03:59:55;0.00;0.00;0.62;0.00;0.00;0.62;7.63;3.43;;;22.50;22.60;;;;;;2263042;61;20353;-64
2024/03/17 04:02:21;0.00;0.00;0.62;0.00;0.00;0.62;4.30;3.03;;;22.50;22.60;;;;;;2263180;61;20353;-64
2024/03/17 04:04:47;0.00;0.00;0.62;0.00;0.00;0.62;4.17;2.40;;;22.50;22.60;;;;;;2263008;61;20384;-64
2024/03/17 04:07:15;0.00;0.00;0.62;0.00;0.00;0.62;4.23;2.60;;;22.50;22.60;;;;;;2263054;61;20369;-64
2024/03/17 04:09:41;0.00;0.00;0.62;0.00;0.00;0.62;3.27;2.60;;;22.50;22.60;;;;;;2262926;61;20371;-65
2024/03/17 04:12:07;0.00;0.00;0.62;0.00;0.00;0.62;4.37;2.80;;;22.40;22.50;;;;;;2258731;61;20383;-65
2024/03/17 04:14:33;0.00;0.00;0.62;0.00;0.00;0.62;5.10;3.20;;;22.50;22.60;;;;;;2262973;61;20480;-65
2024/03/17 04:16:59;0.00;0.00;0.62;0.00;0.00;0.62;5.20;3.47;;;22.50;22.60;;;;;;2263009;61;20799;-65
2024/03/17 04:19:26;0.00;0.00;0.62;0.00;0.00;0.62;4.83;3.20;;;22.40;22.50;;;;;;2262831;61;20432;-65
2024/03/17 04:21:54;0.00;0.00;0.62;0.00;0.00;0.62;4.07;2.70;;;22.40;22.50;;;;;;2262989;61;20346;-65
2024/03/17 04:24:21;0.00;0.00;0.62;0.00;0.00;0.62;4.83;2.73;;;22.40;22.50;;;;;;2263028;61;20345;-65
2024/03/17 04:26:48;0.00;0.00;0.62;0.00;0.00;0.62;6.33;2.43;;;22.40;22.50;;;;;;2262706;61;20462;-65
2024/03/17 04:29:14;0.00;0.00;0.62;0.00;0.00;0.62;3.40;2.50;;;22.40;22.50;;;;;;2263116;61;20866;-65
2024/03/17 04:31:42;0.00;0.00;0.62;0.00;0.00;0.62;5.13;2.87;;;22.40;22.50;;;;;;2262885;61;20361;-65
2024/03/17 04:34:08;0.00;0.00;0.62;0.00;0.00;0.62;3.97;2.20;;;22.40;22.50;;;;;;2262716;61;20409;-65
2024/03/17 04:36:34;0.00;0.00;0.62;0.00;0.00;0.62;4.50;2.40;;;22.40;22.50;;;;;;2262872;61;20373;-65
2024/03/17 04:39:00;0.00;0.00;0.62;0.00;0.00;0.62;3.50;2.70;;;22.40;22.40;;;;;;2262991;61;20349;-65
2024/03/17 04:41:27;0.00;0.00;0.62;0.00;0.00;0.62;4.37;2.67;;;22.40;22.50;;;;;;2262602;61;20421;-65
2024/03/17 04:43:53;0.00;0.00;0.62;0.00;0.00;0.62;4.63;2.47;;;22.40;22.40;;;;;;2263612;61;20341;-65
2024/03/17 04:46:20;0.00;0.00;0.62;0.00;0.00;0.62;4.00;2.43;;;22.40;22.40;;;;;;2263858;61;20365;-64
2024/03/17 04:48:46;0.00;0.00;0.62;0.00;0.00;0.62;4.43;3.00;;;22.30;22.40;;;;;;2263579;61;20414;-65
2024/03/17 04:51:16;0.00;0.00;0.62;0.00;0.00;0.62;4.03;2.77;;;22.30;22.50;;;;;;2263454;61;20356;-65
2024/03/17 04:53:42;0.00;0.00;0.62;0.00;0.00;0.62;3.87;2.70;;;22.30;22.40;;;;;;2263768;61;20978;-65
2024/03/17 04:56:08;0.00;0.00;0.62;0.00;0.00;0.62;4.10;2.63;;;22.30;22.40;;;;;;2263502;61;20691;-65
2024/03/17 04:58:36;0.00;0.00;0.62;0.00;0.00;0.62;3.40;2.20;;;22.30;22.40;;;;;;2263727;61;20357;-64
2024/03/17 05:01:06;0.00;0.00;0.62;0.00;0.00;0.62;4.33;2.20;;;22.30;22.40;;;;;;2263813;61;20353;-65
2024/03/17 05:03:33;0.00;0.00;0.62;0.00;0.00;0.62;3.20;2.20;;;22.30;22.40;;;;;;2263391;61;20620;-65
2024/03/17 05:06:02;0.00;0.00;0.62;0.00;0.00;0.62;4.87;2.30;;;22.30;22.40;;;;;;2263668;61;20400;-65
2024/03/17 05:08:29;0.00;0.00;0.62;0.00;0.00;0.62;5.17;2.90;;;22.30;22.40;;;;;;2263608;61;20356;-65
2024/03/17 05:10:59;0.00;0.00;0.62;0.00;0.00;0.62;3.40;2.30;;;22.30;22.40;;;;;;2263256;61;20364;-65
2024/03/17 05:13:26;0.00;0.00;0.62;0.00;0.00;0.62;3.70;2.30;;;22.30;22.40;;;;;;2263608;61;20415;-65
2024/03/17 05:15:54;0.00;0.00;0.62;0.00;0.00;0.62;3.73;2.53;;;22.30;22.30;;;;;;2263638;61;20829;-65
2024/03/17 05:18:22;0.00;0.00;0.62;0.00;0.00;0.62;4.10;2.37;;;22.30;22.40;;;;;;2263135;61;20376;-65
2024/03/17 05:20:58;0.00;0.00;0.62;0.00;0.00;0.62;3.50;2.00;;;22.30;22.30;;;;;;2263547;61;20379;-64
2024/03/17 05:23:27;0.00;0.00;0.62;0.00;0.00;0.62;5.03;2.77;;;22.20;22.30;;;;;;2263781;61;20391;-64
2024/03/17 05:25:53;0.00;0.00;0.62;0.00;0.00;0.62;4.13;2.63;;;22.20;22.30;;;;;;2263364;61;20463;-65
2024/03/17 05:28:19;0.00;0.00;0.62;0.00;0.00;0.62;3.60;2.40;;;22.20;22.30;;;;;;2263540;61;20409;-65
2024/03/17 05:30:46;0.00;0.00;0.62;0.00;0.00;0.62;3.30;2.30;;;22.20;22.30;;;;;;2263467;61;20361;-65
2024/03/17 05:33:13;0.00;0.00;0.62;0.00;0.00;0.62;4.57;2.60;;;22.20;22.30;;;;;;2263180;61;20381;-64
2024/03/17 05:35:39;0.00;0.00;0.62;0.00;0.00;0.62;5.23;3.10;;;22.20;22.30;;;;;;2263466;61;20468;-64
2024/03/17 05:38:10;0.00;0.00;0.62;0.00;0.00;0.62;3.27;2.63;;;22.20;22.30;;;;;;2263745;61;20365;-64
2024/03/17 05:40:41;0.00;0.00;0.62;0.00;0.00;0.62;3.00;1.80;;;22.20;22.30;;;;;;2263261;61;20909;-65
2024/03/17 05:43:07;0.00;0.00;0.62;0.00;0.00;0.62;3.70;2.67;;;22.20;22.30;;;;;;2263615;61;20361;-64
2024/03/17 05:45:33;0.00;0.00;0.62;0.00;0.00;0.62;5.53;2.47;;;22.20;22.20;;;;;;2263590;61;20373;-64
2024/03/17 05:48:04;0.00;0.00;0.62;0.00;0.00;0.62;3.90;2.20;;;22.20;22.20;;;;;;2263232;61;20804;-64
2024/03/17 05:50:31;0.00;0.00;0.62;0.00;0.00;0.62;3.53;2.70;;;22.20;22.30;;;;;;2263335;61;20345;-65
2024/03/17 05:52:57;0.00;0.00;0.62;0.00;0.00;0.62;4.57;2.27;;;22.20;22.30;;;;;;2263572;61;20361;-64
2024/03/17 05:55:23;0.00;0.00;0.62;0.00;0.00;0.62;3.80;2.33;;;22.20;22.30;;;;;;2263205;61;20384;-65
2024/03/17 05:57:50;0.00;0.00;0.62;0.00;0.00;0.62;3.80;2.10;;;22.20;22.20;;;;;;2263302;61;20353;-65
2024/03/17 06:00:16;0.00;0.00;0.62;0.00;0.00;0.62;3.27;2.00;;;22.20;22.20;;;;;;2263446;61;20353;-65
2024/03/17 06:02:44;0.00;0.00;0.62;0.00;0.00;0.62;3.73;1.97;;;22.10;22.20;;;;;;2263183;61;20879;-64
2024/03/17 06:05:12;0.00;0.00;0.62;0.00;0.00;0.62;3.77;2.10;;;22.10;22.70;;;;;;2263413;61;20857;-65
2024/03/17 06:07:39;0.00;0.00;0.62;0.00;0.00;0.62;4.40;2.37;;;22.10;22.20;;;;;;2259775;61;20735;-65
2024/03/17 06:10:07;0.00;0.00;0.62;0.00;0.00;0.62;3.93;2.50;;;22.10;22.20;;;;;;2259209;61;20360;-64
2024/03/17 06:12:33;0.00;0.00;0.62;0.00;0.00;0.62;4.60;2.87;;;22.10;22.20;;;;;;2263119;61;20740;-64
2024/03/17 06:15:01;0.00;0.00;0.62;0.00;0.00;0.62;4.80;2.87;;;22.10;22.20;;;;;;2263451;61;20435;-64
2024/03/17 06:17:28;0.00;0.00;0.62;0.00;0.00;0.62;3.30;2.23;;;22.10;22.20;;;;;;2263037;61;20426;-65
2024/03/17 06:19:54;0.00;0.00;0.62;0.00;0.00;0.62;4.23;2.53;;;22.10;22.20;;;;;;2263329;61;21027;-64
2024/03/17 06:22:20;0.00;0.00;0.62;0.00;0.00;0.62;7.20;2.50;;;22.10;22.20;;;;;;2263643;61;20364;-65
2024/03/17 06:24:49;0.00;0.00;0.62;0.00;0.00;0.62;2.57;1.90;;;22.10;22.20;;;;;;2263107;61;20410;-65
2024/03/17 06:27:15;0.00;0.00;0.62;0.00;0.00;0.62;3.40;1.90;;;22.10;22.20;;;;;;2263278;61;20372;-64
2024/03/17 06:29:45;0.00;0.00;0.62;0.00;0.00;0.62;3.20;2.20;;;22.10;22.20;;;;;;2263698;61;20371;-65
2024/03/17 06:32:11;0.00;0.00;0.62;0.00;0.00;0.62;7.23;3.03;;;22.10;22.20;;;;;;2262764;61;20353;-64
2024/03/17 06:34:37;0.00;0.00;0.62;0.00;0.00;0.62;4.03;2.50;;;22.10;22.20;;;;;;2263061;61;20975;-65
2024/03/17 06:37:04;0.00;0.00;0.62;0.00;0.00;0.62;6.13;2.40;;;22.10;22.20;;;;;;2263392;61;20373;-64
2024/03/17 06:39:30;0.00;0.00;0.62;0.00;0.00;0.62;4.87;2.40;;;22.10;22.40;;;;;;2263142;61;20353;-65
2024/03/17 06:41:58;0.00;0.00;0.62;0.00;0.00;0.62;4.47;2.70;;;22.10;22.20;;;;;;2263453;61;20361;-65
2024/03/17 06:44:27;0.00;0.00;0.62;0.00;0.00;0.62;3.53;1.87;;;22.10;22.20;;;;;;2263515;61;20353;-65
2024/03/17 06:46:53;0.00;0.00;0.62;0.00;0.00;0.62;3.30;2.03;;;22.10;22.20;;;;;;2263006;61;20365;-65
2024/03/17 06:49:19;0.00;0.00;0.62;0.00;0.00;0.62;4.57;2.37;;;22.10;22.20;;;;;;2263519;61;20365;-65
2024/03/17 06:51:45;0.00;0.00;0.62;0.00;0.00;0.62;3.07;1.80;;;22.10;22.20;;;;;;2263345;61;20414;-65
2024/03/17 06:54:11;0.00;0.00;0.62;0.00;0.00;0.62;3.27;2.00;;;22.10;22.20;;;;;;2262941;61;20787;-65
2024/03/17 06:56:37;0.00;0.00;0.62;0.00;0.00;0.62;4.17;2.40;;;22.00;22.20;;;;;;2263141;61;20930;-65
2024/03/17 06:59:05;0.00;0.00;0.62;0.00;0.00;0.62;5.03;2.70;;;22.10;22.30;;;;;;2264609;61;20353;-64
2024/03/17 07:01:31;0.00;0.00;0.62;0.00;0.00;0.62;3.60;2.10;;;22.10;22.30;;;;;;2263166;61;20442;-65
2024/03/17 07:03:59;0.00;0.00;0.62;0.00;0.00;0.62;3.23;1.80;;;22.10;22.30;;;;;;2263166;61;20867;-65
2024/03/17 07:06:26;0.00;0.00;0.62;0.00;0.00;0.62;4.43;2.10;;;22.00;22.20;;;;;;2263353;61;20380;-65
2024/03/17 07:08:53;0.00;0.00;0.62;0.00;0.00;0.62;2.83;2.00;;;22.00;22.20;;;;;;2263355;61;20341;-65
2024/03/17 07:11:23;0.00;0.00;0.62;0.00;0.00;0.62;3.07;2.17;;;22.00;22.30;;;;;;2262990;61;20358;-65
2024/03/17 07:13:51;0.00;0.00;0.62;0.00;0.00;0.62;2.50;1.90;;;22.00;22.30;;;;;;2263547;61;20941;-65
2024/03/17 07:16:18;0.00;0.00;0.62;0.00;0.00;0.62;3.30;1.80;;;22.00;22.30;;;;;;2263277;61;20381;-65
2024/03/17 07:18:44;0.00;0.00;0.62;0.00;0.00;0.62;5.43;1.93;;;22.00;22.30;;;;;;2262977;61;20883;-65
2024/03/17 07:21:11;0.00;0.00;0.62;0.00;0.00;0.62;2.50;2.00;;;22.00;22.30;;;;;;2263227;61;20353;-65
2024/03/17 07:23:38;0.00;0.00;0.62;0.00;0.00;0.62;3.57;2.00;;;22.00;22.30;;;;;;2263273;61;20399;-65
2024/03/17 07:26:04;0.00;0.00;0.62;0.00;0.00;0.62;4.90;2.73;;;22.00;22.30;;;;;;2262690;61;20467;-65
2024/03/17 07:28:31;0.00;0.00;0.62;0.00;0.00;0.62;4.27;2.30;;;22.00;22.30;;;;;;2263415;61;20349;-65
2024/03/17 07:31:02;0.00;0.00;0.62;0.00;0.00;0.62;2.60;1.60;;;22.00;22.30;;;;;;2263015;61;20353;-65
2024/03/17 07:33:29;0.00;0.00;0.62;0.00;0.00;0.62;2.90;1.93;;;22.00;22.30;;;;;;2262959;61;20456;-65
2024/03/17 07:35:59;0.00;0.00;0.62;0.00;0.00;0.62;4.23;2.30;;;22.00;22.30;;;;;;2262957;61;20373;-65
2024/03/17 07:38:27;0.00;0.00;0.62;0.00;0.00;0.62;5.57;2.87;;;22.00;22.40;;;;;;2263256;61;20679;-65
2024/03/17 07:40:58;0.00;0.00;0.62;0.00;0.00;0.62;3.43;2.33;;;22.00;22.40;;;;;;2262980;61;20855;-65
2024/03/17 07:43:24;0.00;0.00;0.62;0.00;0.00;0.62;5.20;2.20;;;22.00;22.40;;;;;;2263351;61;20891;-65
2024/03/17 07:45:59;0.00;0.00;0.62;0.00;0.00;0.62;5.17;2.40;;;22.00;22.40;;;;;;2263094;61;20471;-65
2024/03/17 07:48:25;0.00;0.00;0.62;0.00;0.00;0.62;4.10;2.63;;;22.00;22.40;;;;;;2262925;61;20468;-65
2024/03/17 07:50:56;0.00;0.00;0.62;0.00;0.00;0.62;5.70;2.37;;;22.00;22.40;;;;;;2263226;61;20358;-65
2024/03/17 07:53:24;0.00;0.00;0.62;0.00;0.00;0.62;3.53;2.27;;;22.00;22.40;;;;;;2263034;61;20369;-65
2024/03/17 07:55:58;0.00;0.00;0.62;0.00;0.00;0.62;5.20;2.53;;;22.00;22.40;;;;;;2263048;61;20373;-64
2024/03/17 07:58:25;0.00;0.00;0.62;0.00;0.00;0.62;3.20;2.30;;;22.00;22.40;;;;;;2263281;61;20353;-65
2024/03/17 08:00:52;0.00;0.00;0.62;0.00;0.00;0.62;3.87;2.43;;;22.00;22.50;;;;;;2262803;61;20400;-65
2024/03/17 08:03:19;0.00;0.00;0.62;0.00;0.00;0.62;5.70;2.90;;;22.00;22.50;;;;;;2259016;61;20949;-65
2024/03/17 08:05:49;0.00;0.00;0.62;0.00;0.00;0.62;3.50;2.50;;;22.00;22.50;;;;;;2263009;61;20925;-65
2024/03/17 08:08:16;0.00;0.00;0.62;0.00;0.00;0.62;4.17;2.70;;;22.00;22.50;;;;;;2260310;61;20369;-64
2024/03/17 08:10:43;0.00;0.00;0.62;0.00;0.00;0.62;5.10;2.60;;;22.00;22.40;;;;;;2258943;61;20353;-65
2024/03/17 08:13:09;0.00;0.00;0.62;0.00;0.00;0.62;4.50;2.80;;;22.10;22.50;;;;;;2258810;61;20350;-65
2024/03/17 08:15:36;0.00;0.00;0.62;0.00;0.00;0.62;5.43;2.70;;;22.10;22.50;;;;;;2254822;61;20400;-65
2024/03/17 08:18:07;0.00;0.00;0.62;0.00;0.00;0.62;5.07;2.90;;;22.10;22.50;;;;;;2259181;61;20366;-65
2024/03/17 08:20:37;0.00;0.00;0.62;0.00;0.00;0.62;3.53;2.50;;;22.10;22.50;;;;;;2259055;61;20818;-65
2024/03/17 08:23:05;0.00;0.00;0.62;0.00;0.00;0.62;4.37;2.23;;;22.00;22.50;;;;;;2258740;61;20445;-65
2024/03/17 08:25:33;0.00;0.00;0.62;0.00;0.00;0.62;4.47;3.00;;;22.00;22.50;;;;;;2259081;61;20461;-65
2024/03/17 08:27:59;0.00;0.00;0.62;0.00;0.00;0.62;6.67;2.67;;;22.10;22.60;;;;;;2258872;61;20350;-65
2024/03/17 08:30:26;0.00;0.00;0.62;0.00;0.00;0.62;4.33;2.73;;;22.00;22.50;;;;;;2258754;61;20866;-64
2024/03/17 08:32:52;0.00;0.00;0.62;0.00;0.00;0.62;4.70;2.50;;;22.00;22.50;;;;;;2259113;61;20391;-64
2024/03/17 08:35:18;0.00;0.00;0.62;0.00;0.00;0.62;6.50;3.00;;;22.10;22.60;;;;;;2259088;61;20848;-63
2024/03/17 08:37:44;0.00;0.00;0.62;0.00;0.00;0.62;7.43;3.20;;;22.10;22.60;;;;;;2259061;61;20366;-64
2024/03/17 08:40:13;0.00;0.00;0.62;0.00;0.00;0.62;4.60;2.87;;;22.00;22.50;;;;;;2258973;61;20361;-64
2024/03/17 08:42:41;0.00;0.00;0.62;0.00;0.00;0.62;4.27;2.97;;;22.00;22.50;;;;;;2259036;61;20356;-65
2024/03/17 08:45:10;0.00;0.00;0.62;0.00;0.00;0.62;4.17;2.73;;;22.10;22.70;;;;;;2258887;61;20437;-65
2024/03/17 08:47:36;0.00;0.00;0.62;0.00;0.00;0.62;3.73;2.33;;;22.10;22.70;;;;;;2259050;61;20358;-65
2024/03/17 08:50:03;0.00;0.00;0.62;0.00;0.00;0.62;5.53;2.50;;;22.10;22.70;;;;;;2259022;61;20859;-64
2024/03/17 08:52:31;0.00;0.00;0.62;0.00;0.00;0.62;4.10;3.17;;;22.10;22.70;;;;;;2258652;61;20872;-65
2024/03/17 08:54:57;0.00;0.00;0.62;0.00;0.00;0.62;5.03;2.70;;;22.10;22.70;;;;;;2258575;61;20857;-64
2024/03/17 08:57:24;0.00;0.00;0.62;0.00;0.00;0.62;5.23;3.63;;;22.10;22.70;;;;;;2258957;61;20358;-64
2024/03/17 08:59:53;0.00;0.00;0.62;0.00;0.00;0.62;8.30;4.77;;;22.10;22.70;;;;;;2259049;61;20404;-64
2024/03/17 09:02:20;0.00;0.00;0.62;0.00;0.00;0.62;5.90;4.23;;;22.10;22.70;;;;;;2258349;61;20354;-65
2024/03/17 09:04:47;0.00;0.00;0.62;0.00;0.00;0.62;6.73;4.77;;;22.10;22.70;;;;;;2258812;61;20380;-65
2024/03/17 09:07:15;0.00;0.00;0.62;0.00;0.00;0.62;7.83;5.13;;;22.10;22.70;;;;;;2258897;61;20384;-65
2024/03/17 09:09:41;0.00;0.00;0.62;0.00;0.00;0.62;9.20;5.37;;;22.10;22.70;;;;;;2258835;61;20890;-65
2024/03/17 09:12:07;0.00;0.00;0.62;0.00;0.00;0.62;6.73;4.80;;;22.10;22.70;;;;;;2258778;61;20872;-65
2024/03/17 09:14:34;0.00;0.00;0.62;0.00;0.00;0.62;6.53;4.80;;;22.10;22.70;;;;;;2258777;61;20791;-64
2024/03/17 09:17:01;0.00;0.00;0.62;0.00;0.00;0.62;7.00;4.83;;;22.10;22.70;;;;;;2258725;61;20381;-64
2024/03/17 09:19:29;0.00;0.00;0.62;0.00;0.00;0.62;8.20;4.93;;;22.10;22.70;;;;;;2258935;61;20421;-65
2024/03/17 09:21:55;0.00;0.00;0.62;0.00;0.00;0.62;6.50;3.93;;;22.10;22.70;;;;;;2258924;61;20369;-64
2024/03/17 09:24:21;0.00;0.00;0.62;0.00;0.00;0.62;8.90;5.20;;;22.10;22.70;;;;;;2258576;61;20404;-65
2024/03/17 09:26:48;0.00;0.00;0.62;0.00;0.00;0.62;8.00;5.33;;;22.10;22.70;;;;;;2258462;61;20367;-65
2024/03/17 09:29:17;0.00;0.00;0.62;0.00;0.00;0.62;7.17;5.07;;;22.20;22.80;;;;;;2254951;61;20412;-65
2024/03/17 09:31:43;0.00;0.00;0.62;0.00;0.00;0.62;5.17;4.30;;;22.20;22.80;;;;;;2259020;61;20354;-64
2024/03/17 09:34:11;0.00;0.00;0.62;0.00;0.00;0.62;10.00;5.93;;;22.20;22.80;;;;;;2259628;61;20884;-64
2024/03/17 09:36:37;0.00;0.00;0.62;0.00;0.00;0.62;10.83;6.07;;;22.20;22.80;;;;;;2259364;61;20381;-65
2024/03/17 09:39:04;0.00;0.00;0.62;0.00;0.00;0.62;9.37;5.40;;;22.20;22.80;;;;;;2259436;61;20796;-64
2024/03/17 09:41:30;0.00;0.00;0.62;0.00;0.00;0.62;8.40;6.00;;;22.20;22.80;;;;;;2259640;61;20426;-64
2024/03/17 09:43:58;0.00;0.00;0.62;0.00;0.00;0.62;8.23;5.53;;;22.20;22.80;;;;;;2259656;61;20358;-64